createdAt,value
2023-04-06T00:02:19.231Z,3.70
2023-04-06T00:04:46.242Z,3.70
2023-04-06T00:07:13.122Z,3.70
2023-04-06T00:09:40.006Z,3.70
2023-04-06T00:12:07.197Z,3.80
2023-04-06T00:14:34.142Z,3.80
2023-04-06T00:17:01.040Z,3.90
2023-04-06T00:19:27.878Z,3.90
2023-04-06T00:21:54.893Z,3.90
2023-04-06T00:24:21.684Z,3.90
2023-04-06T00:26:48.561Z,3.90
2023-04-06T00:29:16.054Z,3.80
2023-04-06T00:31:42.981Z,3.80
2023-04-06T00:34:10.485Z,3.80
2023-04-06T00:36:37.627Z,3.70
2023-04-06T00:39:04.497Z,3.70
2023-04-06T00:41:31.560Z,3.70
2023-04-06T00:43:58.452Z,3.70
2023-04-06T00:46:25.416Z,3.70
2023-04-06T00:48:52.330Z,3.60
2023-04-06T00:51:19.124Z,3.60
2023-04-06T00:53:47.058Z,3.70
2023-04-06T00:56:13.912Z,3.70
2023-04-06T00:58:41.744Z,3.70
2023-04-06T01:01:08.630Z,3.70
2023-04-06T01:03:35.836Z,3.70
2023-04-06T01:06:02.694Z,3.70
2023-04-06T01:08:30.054Z,3.70
2023-04-06T01:10:56.924Z,3.70
2023-04-06T01:13:23.775Z,3.70
2023-04-06T01:15:50.955Z,3.60
2023-04-06T01:18:18.040Z,3.60
2023-04-06T01:20:45.012Z,3.60
2023-04-06T01:23:11.877Z,3.60
2023-04-06T01:25:38.684Z,3.70
2023-04-06T01:28:05.540Z,3.70
2023-04-06T01:30:32.460Z,3.70
2023-04-06T01:32:59.314Z,3.60
2023-04-06T01:35:27.404Z,3.60
2023-04-06T01:37:54.245Z,3.60
2023-04-06T01:40:21.848Z,3.70
2023-04-06T01:42:48.750Z,3.80
2023-04-06T01:45:15.628Z,3.80
2023-04-06T01:47:42.923Z,3.80
2023-04-06T01:50:10.328Z,3.80
2023-04-06T01:52:38.106Z,3.80
2023-04-06T01:55:05.294Z,3.80
2023-04-06T01:57:32.088Z,3.80
2023-04-06T01:59:58.965Z,3.80
2023-04-06T02:02:25.997Z,3.70
2023-04-06T02:04:52.963Z,3.60
2023-04-06T02:07:19.750Z,3.60
2023-04-06T02:09:46.571Z,3.60
2023-04-06T02:12:13.428Z,3.60
2023-04-06T02:14:40.341Z,3.70
2023-04-06T02:17:07.164Z,3.70
2023-04-06T02:19:34.050Z,3.80
2023-04-06T02:22:01.324Z,3.80
2023-04-06T02:24:28.113Z,3.70
2023-04-06T02:26:55.442Z,3.70
2023-04-06T02:29:22.483Z,3.70
2023-04-06T02:31:49.293Z,3.70
2023-04-06T02:34:18.648Z,3.80
2023-04-06T02:36:46.315Z,3.80
2023-04-06T02:39:13.936Z,3.70
2023-04-06T02:41:40.931Z,3.70
2023-04-06T02:44:08.717Z,3.70
2023-04-06T02:46:36.054Z,3.70
2023-04-06T02:49:03.003Z,3.70
2023-04-06T02:51:29.862Z,3.60
2023-04-06T02:53:56.639Z,3.60
2023-04-06T02:56:23.472Z,3.50
2023-04-06T02:58:50.486Z,3.50
2023-04-06T03:01:17.789Z,3.50
2023-04-06T03:03:44.783Z,3.40
2023-04-06T03:06:11.672Z,3.50
2023-04-06T03:08:38.532Z,3.50
2023-04-06T03:11:05.528Z,3.50
2023-04-06T03:13:32.315Z,3.50
2023-04-06T03:15:59.253Z,3.50
2023-04-06T03:18:26.392Z,3.50
2023-04-06T03:20:56.018Z,3.50
2023-04-06T03:23:22.950Z,3.60
2023-04-06T03:25:49.778Z,3.60
2023-04-06T03:28:19.590Z,3.60
2023-04-06T03:30:46.778Z,3.60
2023-04-06T03:33:13.714Z,3.50
2023-04-06T03:35:40.541Z,3.50
2023-04-06T03:38:07.413Z,3.60
2023-04-06T03:40:34.203Z,3.60
2023-04-06T03:43:01.186Z,3.60
2023-04-06T03:45:28.038Z,3.60
2023-04-06T03:47:54.939Z,3.50
2023-04-06T03:50:21.779Z,3.50
2023-04-06T03:52:48.638Z,3.40
2023-04-06T03:55:15.519Z,3.40
2023-04-06T03:57:42.523Z,3.40
2023-04-06T04:00:10.081Z,3.50
2023-04-06T04:02:37.066Z,3.50
2023-04-06T04:05:04.299Z,3.50
2023-04-06T04:07:31.525Z,3.50
2023-04-06T04:09:58.365Z,3.50
2023-04-06T04:12:25.398Z,3.50
2023-04-06T04:14:52.216Z,3.60
2023-04-06T04:17:19.098Z,3.60
2023-04-06T04:19:46.038Z,3.60
2023-04-06T04:22:12.967Z,3.60
2023-04-06T04:24:39.863Z,3.60
2023-04-06T04:27:06.745Z,3.50
2023-04-06T04:29:33.623Z,3.50
2023-04-06T04:32:00.669Z,3.40
2023-04-06T04:34:27.565Z,3.40
2023-04-06T04:36:54.410Z,3.40
2023-04-06T04:39:21.449Z,3.40
2023-04-06T04:41:48.866Z,3.40
2023-04-06T04:44:16.019Z,3.50
2023-04-06T04:46:42.937Z,3.50
2023-04-06T04:49:09.882Z,3.50
2023-04-06T04:51:37.498Z,3.60
2023-04-06T04:54:04.379Z,3.70
2023-04-06T04:56:31.219Z,3.90
2023-04-06T04:58:58.051Z,4.00
2023-04-06T05:01:24.957Z,4.10
2023-04-06T05:03:51.975Z,4.30
2023-04-06T05:06:20.176Z,4.50
2023-04-06T05:08:47.037Z,4.70
2023-04-06T05:11:13.897Z,5.00
2023-04-06T05:13:40.984Z,5.10
2023-04-06T05:16:07.908Z,5.40
2023-04-06T05:18:34.956Z,5.60
2023-04-06T05:21:01.773Z,5.90
2023-04-06T05:23:28.660Z,6.20
2023-04-06T05:25:55.530Z,6.50
2023-04-06T05:28:22.472Z,7.00
2023-04-06T05:30:49.337Z,7.60
2023-04-06T05:33:16.223Z,8.10
2023-04-06T05:35:43.130Z,8.80
2023-04-06T05:38:11.216Z,9.50
2023-04-06T05:40:39.375Z,9.90
2023-04-06T05:43:06.422Z,10.20
2023-04-06T05:45:33.303Z,10.30
2023-04-06T05:48:00.083Z,10.20
2023-04-06T05:50:27.867Z,9.90
2023-04-06T05:52:54.736Z,9.70
2023-04-06T05:55:21.614Z,9.60
2023-04-06T05:57:48.385Z,9.50
2023-04-06T06:00:15.664Z,9.50
2023-04-06T06:02:43.381Z,9.50
2023-04-06T06:05:11.566Z,9.60
2023-04-06T06:07:38.548Z,9.70
2023-04-06T06:10:05.704Z,9.90
2023-04-06T06:12:32.608Z,10.00
2023-04-06T06:14:59.584Z,10.30
2023-04-06T06:17:26.425Z,10.90
2023-04-06T06:19:53.312Z,11.90
2023-04-06T06:22:20.414Z,13.40
2023-04-06T06:24:47.195Z,15.10
2023-04-06T06:27:14.008Z,16.50
2023-04-06T06:29:40.988Z,17.30
2023-04-06T06:32:09.965Z,17.80
2023-04-06T06:34:37.183Z,18.40
2023-04-06T06:37:04.010Z,18.40
2023-04-06T06:39:30.904Z,18.40
2023-04-06T06:41:57.821Z,18.50
2023-04-06T06:44:24.748Z,18.30
2023-04-06T06:46:52.922Z,18.30
2023-04-06T06:49:20.417Z,18.10
2023-04-06T06:51:47.526Z,17.60
2023-04-06T06:54:14.361Z,17.30
2023-04-06T06:56:41.419Z,16.90
2023-04-06T06:59:08.424Z,16.70
2023-04-06T07:01:36.129Z,16.80
2023-04-06T07:04:03.094Z,17.30
2023-04-06T07:06:29.901Z,17.90
2023-04-06T07:08:56.826Z,18.60
2023-04-06T07:11:23.683Z,19.10
2023-04-06T07:13:50.899Z,19.20
2023-04-06T07:16:17.763Z,18.90
2023-04-06T07:18:44.573Z,18.30
2023-04-06T07:21:11.409Z,17.70
2023-04-06T07:23:38.509Z,17.30
2023-04-06T07:26:05.724Z,17.30
2023-04-06T07:28:32.706Z,17.60
2023-04-06T07:30:59.491Z,17.70
2023-04-06T07:33:30.752Z,17.40
2023-04-06T07:35:58.434Z,17.50
2023-04-06T07:38:25.562Z,18.00
2023-04-06T07:40:52.436Z,18.70
2023-04-06T07:43:19.287Z,19.90
2023-04-06T07:45:46.418Z,21.20
2023-04-06T07:48:13.306Z,22.60
2023-04-06T07:50:40.198Z,23.80
2023-04-06T07:53:07.092Z,24.50
2023-04-06T07:55:34.330Z,25.10
2023-04-06T07:58:01.368Z,25.50
2023-04-06T08:00:28.221Z,26.00
2023-04-06T08:02:55.196Z,26.20
2023-04-06T08:05:22.589Z,26.60
2023-04-06T08:07:49.442Z,26.80
2023-04-06T08:10:16.387Z,26.90
2023-04-06T08:12:43.231Z,27.60
2023-04-06T08:15:10.755Z,27.90
2023-04-06T08:17:37.650Z,27.90
2023-04-06T08:20:04.882Z,28.00
2023-04-06T08:22:31.809Z,27.90
2023-04-06T08:24:58.662Z,28.20
2023-04-06T08:27:25.458Z,28.60
2023-04-06T08:29:52.492Z,28.40
2023-04-06T08:32:19.326Z,27.80
2023-04-06T08:34:46.372Z,26.90
2023-04-06T08:37:13.242Z,26.70
2023-04-06T08:39:40.062Z,26.30
2023-04-06T08:42:13.643Z,26.10
2023-04-06T08:44:42.151Z,26.00
2023-04-06T08:47:09.057Z,25.80
2023-04-06T08:49:36.321Z,26.10
2023-04-06T08:52:03.203Z,26.60
2023-04-06T08:54:30.044Z,27.30
2023-04-06T08:56:58.011Z,27.70
2023-04-06T08:59:25.886Z,27.50
2023-04-06T09:01:52.902Z,27.30
2023-04-06T09:04:20.416Z,26.90
2023-04-06T09:06:47.650Z,27.10
2023-04-06T09:09:14.514Z,27.30
2023-04-06T09:11:48.680Z,27.00
2023-04-06T09:14:16.453Z,26.30
2023-04-06T09:16:44.538Z,26.20
2023-04-06T09:19:11.507Z,26.20
2023-04-06T09:21:39.236Z,26.20
2023-04-06T09:24:07.887Z,25.90
2023-04-06T09:26:45.980Z,26.20
2023-04-06T09:29:23.377Z,26.50
2023-04-06T09:31:50.522Z,25.80
2023-04-06T09:34:26.334Z,25.70
2023-04-06T09:36:53.277Z,26.00
2023-04-06T09:39:23.014Z,26.20
2023-04-06T09:41:51.822Z,26.40
2023-04-06T09:44:18.634Z,26.50
2023-04-06T09:46:59.683Z,26.20
2023-04-06T09:49:31.872Z,26.10
2023-04-06T09:52:00.780Z,26.00
2023-04-06T09:54:29.458Z,26.40
2023-04-06T09:57:12.588Z,26.50
2023-04-06T09:59:58.859Z,26.80
2023-04-06T10:02:38.224Z,27.00
2023-04-06T10:05:43.970Z,27.20
2023-04-06T10:08:11.432Z,26.70
2023-04-06T10:10:38.610Z,27.20
2023-04-06T10:13:05.943Z,27.40
2023-04-06T10:15:33.033Z,27.10
2023-04-06T10:18:00.361Z,26.80
2023-04-06T10:20:35.723Z,26.50
2023-04-06T10:23:17.342Z,25.90
2023-04-06T10:25:57.776Z,25.20
2023-04-06T10:28:24.630Z,24.30
2023-04-06T10:30:57.274Z,23.00
2023-04-06T10:33:24.201Z,21.60
2023-04-06T10:35:51.108Z,21.00
2023-04-06T10:38:22.705Z,20.80
2023-04-06T10:40:49.646Z,20.10
2023-04-06T10:43:20.143Z,19.50
2023-04-06T10:45:47.077Z,19.10
2023-04-06T10:48:18.018Z,18.50
2023-04-06T10:50:54.441Z,17.80
2023-04-06T10:53:25.424Z,17.20
2023-04-06T10:55:52.985Z,16.60
2023-04-06T10:58:20.226Z,16.20
2023-04-06T11:00:51.563Z,15.70
2023-04-06T11:03:18.739Z,15.00
2023-04-06T11:05:49.218Z,14.50
2023-04-06T11:08:30.668Z,14.50
2023-04-06T11:11:17.209Z,14.60
2023-04-06T11:13:47.614Z,14.80
2023-04-06T11:16:21.469Z,14.80
2023-04-06T11:18:57.206Z,14.80
2023-04-06T11:21:48.360Z,14.80
2023-04-06T11:24:22.581Z,14.80
2023-04-06T11:26:49.911Z,15.00
2023-04-06T11:29:21.995Z,14.90
2023-04-06T11:31:53.254Z,14.50
2023-04-06T11:34:24.104Z,14.40
2023-04-06T11:36:58.547Z,14.50
2023-04-06T11:39:26.718Z,14.80
2023-04-06T11:41:55.368Z,15.30
2023-04-06T11:44:30.427Z,15.60
2023-04-06T11:46:58.371Z,15.90
2023-04-06T11:49:31.677Z,16.10
2023-04-06T11:51:59.143Z,16.10
2023-04-06T11:54:35.869Z,15.80
2023-04-06T11:57:03.240Z,15.60
2023-04-06T11:59:30.171Z,15.60
2023-04-06T12:01:58.495Z,15.60
2023-04-06T12:04:25.607Z,15.70
2023-04-06T12:06:52.471Z,15.80
2023-04-06T12:09:19.376Z,15.80
2023-04-06T12:11:46.222Z,15.70
2023-04-06T12:14:13.437Z,15.80
2023-04-06T12:16:40.766Z,15.60
2023-04-06T12:19:07.809Z,15.50
2023-04-06T12:21:37.291Z,15.30
2023-04-06T12:24:04.958Z,15.10
2023-04-06T12:26:32.098Z,15.00
2023-04-06T12:29:06.006Z,14.90
2023-04-06T12:31:33.014Z,14.90
2023-04-06T12:33:59.947Z,14.90
2023-04-06T12:36:27.670Z,15.00
2023-04-06T12:38:54.628Z,15.00
2023-04-06T12:41:21.468Z,15.00
2023-04-06T12:43:49.323Z,15.00
2023-04-06T12:46:16.359Z,14.90
2023-04-06T12:48:43.474Z,14.60
2023-04-06T12:51:10.477Z,14.10
2023-04-06T12:53:37.356Z,14.10
2023-04-06T12:56:06.659Z,14.00
2023-04-06T12:58:34.461Z,13.80
2023-04-06T13:01:04.031Z,14.00
2023-04-06T13:03:31.645Z,13.90
2023-04-06T13:05:59.904Z,14.00
2023-04-06T13:08:26.749Z,14.10
2023-04-06T13:10:53.781Z,14.20
2023-04-06T13:13:30.020Z,14.30
2023-04-06T13:16:03.437Z,13.90
2023-04-06T13:18:31.742Z,13.60
2023-04-06T13:20:58.576Z,13.60
2023-04-06T13:23:25.391Z,13.70
2023-04-06T13:26:01.857Z,13.80
2023-04-06T13:28:29.102Z,14.00
2023-04-06T13:30:56.457Z,14.20
2023-04-06T13:33:23.583Z,14.30
2023-04-06T13:35:50.437Z,14.40
2023-04-06T13:38:17.263Z,14.50
2023-04-06T13:40:44.321Z,14.50
2023-04-06T13:43:11.741Z,14.50
2023-04-06T13:45:39.141Z,14.50
2023-04-06T13:48:06.585Z,14.40
2023-04-06T13:50:33.979Z,14.30
2023-04-06T13:53:00.767Z,14.20
2023-04-06T13:55:27.589Z,14.20
2023-04-06T13:57:54.416Z,14.30
2023-04-06T14:00:21.435Z,14.30
2023-04-06T14:02:48.390Z,14.20
2023-04-06T14:05:15.710Z,14.20
2023-04-06T14:07:42.438Z,14.00
2023-04-06T14:10:14.840Z,13.70
2023-04-06T14:12:47.192Z,13.50
2023-04-06T14:15:14.045Z,13.40
2023-04-06T14:17:41.423Z,13.50
2023-04-06T14:20:08.894Z,13.60
2023-04-06T14:22:36.526Z,13.80
2023-04-06T14:25:03.334Z,13.90
2023-04-06T14:27:30.224Z,14.00
2023-04-06T14:29:57.254Z,14.00
2023-04-06T14:32:25.641Z,14.00
2023-04-06T14:34:52.493Z,13.80
2023-04-06T14:37:19.628Z,13.60
2023-04-06T14:39:46.969Z,13.60
2023-04-06T14:42:13.797Z,13.60
2023-04-06T14:44:43.883Z,13.60
2023-04-06T14:47:11.074Z,13.70
2023-04-06T14:49:37.985Z,13.80
2023-04-06T14:52:05.188Z,13.70
2023-04-06T14:54:32.012Z,13.60
2023-04-06T14:56:58.796Z,13.50
2023-04-06T14:59:25.625Z,13.30
2023-04-06T15:01:52.680Z,13.10
2023-04-06T15:04:19.753Z,12.80
2023-04-06T15:06:46.593Z,12.40
2023-04-06T15:09:13.395Z,12.20
2023-04-06T15:11:40.347Z,12.00
2023-04-06T15:14:07.481Z,11.90
2023-04-06T15:16:34.412Z,12.00
2023-04-06T15:19:01.670Z,12.10
2023-04-06T15:21:28.487Z,12.20
2023-04-06T15:23:55.923Z,12.10
2023-04-06T15:26:22.723Z,12.00
2023-04-06T15:28:49.615Z,12.00
2023-04-06T15:31:28.017Z,12.10
2023-04-06T15:34:03.181Z,12.30
2023-04-06T15:36:30.477Z,12.50
2023-04-06T15:38:58.051Z,12.70
2023-04-06T15:41:26.616Z,12.80
2023-04-06T15:43:53.782Z,12.90
2023-04-06T15:46:20.964Z,12.90
2023-04-06T15:48:48.211Z,13.00
2023-04-06T15:51:16.622Z,13.10
2023-04-06T15:53:43.608Z,13.00
2023-04-06T15:56:10.833Z,13.00
2023-04-06T15:58:37.758Z,12.90
2023-04-06T16:01:17.498Z,12.90
2023-04-06T16:03:44.538Z,12.90
2023-04-06T16:06:11.520Z,12.90
2023-04-06T16:08:38.850Z,12.80
2023-04-06T16:11:05.970Z,12.80
2023-04-06T16:13:33.092Z,12.80
2023-04-06T16:15:59.920Z,12.70
2023-04-06T16:18:27.191Z,12.70
2023-04-06T16:20:53.945Z,12.70
2023-04-06T16:23:20.817Z,12.60
2023-04-06T16:25:47.573Z,12.60
2023-04-06T16:28:14.333Z,12.60
2023-04-06T16:30:43.571Z,12.50
2023-04-06T16:33:12.636Z,12.40
2023-04-06T16:35:46.208Z,12.30
2023-04-06T16:38:13.551Z,12.20
2023-04-06T16:40:41.025Z,12.20
2023-04-06T16:43:08.355Z,12.10
2023-04-06T16:45:35.184Z,12.00
2023-04-06T16:48:02.093Z,12.00
2023-04-06T16:50:28.872Z,11.90
2023-04-06T16:52:56.225Z,11.80
2023-04-06T16:55:23.092Z,11.80
2023-04-06T16:57:50.021Z,11.70
2023-04-06T17:00:17.372Z,11.60
2023-04-06T17:02:47.601Z,11.60
2023-04-06T17:05:14.746Z,11.50
2023-04-06T17:07:41.546Z,11.40
2023-04-06T17:10:08.770Z,11.30
2023-04-06T17:12:35.614Z,11.20
2023-04-06T17:15:02.361Z,11.20
2023-04-06T17:17:29.235Z,11.20
2023-04-06T17:19:56.143Z,11.10
2023-04-06T17:22:22.975Z,11.10
2023-04-06T17:24:49.816Z,11.00
2023-04-06T17:27:16.803Z,10.90
2023-04-06T17:29:43.624Z,10.90
2023-04-06T17:32:11.641Z,10.80
2023-04-06T17:34:38.622Z,10.80
2023-04-06T17:37:05.785Z,10.70
2023-04-06T17:39:32.693Z,10.70
2023-04-06T17:42:04.482Z,10.60
2023-04-06T17:44:31.656Z,10.60
2023-04-06T17:46:58.464Z,10.50
2023-04-06T17:49:25.602Z,10.40
2023-04-06T17:51:52.376Z,10.30
2023-04-06T17:54:19.149Z,10.10
2023-04-06T17:56:49.055Z,10.00
2023-04-06T17:59:16.277Z,9.80
2023-04-06T18:01:43.231Z,9.70
2023-04-06T18:04:10.274Z,9.70
2023-04-06T18:06:37.538Z,9.60
2023-04-06T18:09:04.623Z,9.60
2023-04-06T18:11:32.741Z,9.50
2023-04-06T18:13:59.696Z,9.40
2023-04-06T18:16:28.379Z,9.30
2023-04-06T18:18:55.657Z,9.20
2023-04-06T18:21:22.441Z,9.20
2023-04-06T18:23:49.451Z,9.10
2023-04-06T18:26:18.038Z,9.10
2023-04-06T18:28:45.545Z,9.00
2023-04-06T18:31:12.416Z,9.00
2023-04-06T18:33:39.311Z,8.90
2023-04-06T18:36:06.557Z,8.90
2023-04-06T18:38:33.298Z,8.90
2023-04-06T18:41:00.201Z,8.90
2023-04-06T18:43:27.888Z,8.80
2023-04-06T18:45:55.337Z,8.70
2023-04-06T18:48:22.219Z,8.60
2023-04-06T18:51:01.786Z,8.60
2023-04-06T18:53:28.948Z,8.50
2023-04-06T18:55:58.990Z,8.40
2023-04-06T18:58:26.187Z,8.40
2023-04-06T19:00:53.652Z,8.40
2023-04-06T19:03:22.147Z,8.30
2023-04-06T19:05:49.328Z,8.30
2023-04-06T19:08:16.411Z,8.20
2023-04-06T19:10:43.195Z,8.20
2023-04-06T19:13:09.982Z,8.10
2023-04-06T19:15:36.730Z,8.00
2023-04-06T19:18:03.749Z,7.90
2023-04-06T19:20:33.143Z,7.90
2023-04-06T19:23:00.462Z,7.80
2023-04-06T19:25:27.396Z,7.70
2023-04-06T19:27:54.532Z,7.70
2023-04-06T19:30:21.319Z,7.70
2023-04-06T19:32:48.105Z,7.60
2023-04-06T19:35:14.955Z,7.60
2023-04-06T19:37:43.314Z,7.70
2023-04-06T19:40:10.806Z,7.60
2023-04-06T19:42:38.721Z,7.60
2023-04-06T19:45:06.806Z,7.60
2023-04-06T19:47:35.221Z,7.60
2023-04-06T19:50:05.645Z,7.60
2023-04-06T19:52:32.899Z,7.60
2023-04-06T19:55:00.023Z,7.60
2023-04-06T19:57:27.442Z,7.50
2023-04-06T19:59:54.896Z,7.60
2023-04-06T20:02:22.035Z,7.50
2023-04-06T20:04:49.340Z,7.30
2023-04-06T20:07:16.244Z,7.30
2023-04-06T20:09:43.052Z,7.30
2023-04-06T20:12:09.858Z,7.20
2023-04-06T20:14:36.687Z,7.10
2023-04-06T20:17:03.519Z,7.10
2023-04-06T20:19:30.441Z,7.00
2023-04-06T20:21:57.808Z,7.00
2023-04-06T20:24:24.592Z,7.00
2023-04-06T20:26:51.407Z,7.00
2023-04-06T20:29:18.162Z,7.00
2023-04-06T20:31:45.006Z,7.00
2023-04-06T20:34:12.003Z,7.00
2023-04-06T20:36:40.144Z,6.90
2023-04-06T20:39:07.163Z,6.90
2023-04-06T20:41:34.148Z,6.90
2023-04-06T20:44:01.715Z,6.80
2023-04-06T20:46:28.661Z,6.70
2023-04-06T20:48:55.644Z,6.70
2023-04-06T20:51:25.777Z,6.70
2023-04-06T20:53:53.060Z,6.60
2023-04-06T20:56:21.746Z,6.60
2023-04-06T20:58:48.799Z,6.60
2023-04-06T21:01:16.053Z,6.60
2023-04-06T21:03:43.358Z,6.60
2023-04-06T21:06:10.533Z,6.70
2023-04-06T21:08:37.524Z,6.80
2023-04-06T21:11:04.994Z,6.90
2023-04-06T21:13:31.992Z,6.90
2023-04-06T21:15:58.803Z,6.90
2023-04-06T21:18:25.927Z,6.90
2023-04-06T21:20:52.928Z,6.90
2023-04-06T21:23:19.708Z,6.80
2023-04-06T21:25:46.534Z,6.80
2023-04-06T21:28:13.315Z,6.80
2023-04-06T21:30:41.301Z,6.90
2023-04-06T21:33:09.470Z,6.90
2023-04-06T21:35:42.440Z,7.00
2023-04-06T21:38:09.307Z,7.10
2023-04-06T21:40:36.185Z,7.10
2023-04-06T21:43:03.235Z,7.00
2023-04-06T21:45:30.170Z,7.00
2023-04-06T21:47:56.975Z,6.90
2023-04-06T21:50:23.832Z,7.00
2023-04-06T21:52:50.682Z,6.90
2023-04-06T21:55:17.588Z,6.90
2023-04-06T21:57:47.186Z,6.90
2023-04-06T22:00:15.017Z,6.80
2023-04-06T22:02:42.231Z,6.70
2023-04-06T22:05:09.596Z,6.70
2023-04-06T22:07:36.481Z,6.60
2023-04-06T22:10:03.389Z,6.50
2023-04-06T22:12:30.142Z,6.40
2023-04-06T22:14:57.625Z,6.30
2023-04-06T22:17:24.509Z,6.30
2023-04-06T22:19:52.651Z,6.30
2023-04-06T22:22:19.446Z,6.20
2023-04-06T22:24:46.257Z,6.10
2023-04-06T22:27:13.040Z,6.00
2023-04-06T22:29:39.808Z,6.00
2023-04-06T22:32:06.622Z,5.90
2023-04-06T22:34:33.495Z,5.90
2023-04-06T22:37:00.370Z,5.90
2023-04-06T22:39:27.185Z,5.90
2023-04-06T22:41:54.021Z,5.80
2023-04-06T22:44:20.882Z,5.70
2023-04-06T22:46:47.685Z,5.70
2023-04-06T22:49:14.523Z,5.70
2023-04-06T22:51:42.100Z,5.50
2023-04-06T22:54:12.451Z,5.50
2023-04-06T22:56:39.337Z,5.50
2023-04-06T22:59:06.562Z,5.40
2023-04-06T23:01:33.504Z,5.40
2023-04-06T23:04:00.594Z,5.30
2023-04-06T23:06:27.681Z,5.20
2023-04-06T23:08:54.457Z,5.20
2023-04-06T23:11:22.390Z,5.20
2023-04-06T23:13:49.172Z,5.20
2023-04-06T23:16:16.091Z,5.10
2023-04-06T23:18:43.235Z,5.10
2023-04-06T23:21:10.040Z,5.10
2023-04-06T23:23:36.912Z,5.10
2023-04-06T23:26:03.779Z,5.10
2023-04-06T23:28:30.513Z,5.00
2023-04-06T23:30:57.361Z,4.90
2023-04-06T23:33:24.431Z,4.80
2023-04-06T23:35:52.061Z,4.80
2023-04-06T23:38:18.875Z,4.80
2023-04-06T23:40:46.047Z,4.80
2023-04-06T23:43:12.897Z,4.80
2023-04-06T23:45:41.747Z,4.80
2023-04-06T23:48:09.044Z,4.70
2023-04-06T23:50:36.701Z,4.70
2023-04-06T23:53:04.270Z,4.70
2023-04-06T23:55:31.134Z,4.70
2023-04-06T23:57:58.025Z,4.70
